createdAt,value
2022-11-29T00:00:47.199Z,100919.25
2022-11-29T00:03:14.757Z,100916.47
2022-11-29T00:05:41.448Z,100914.81
2022-11-29T00:08:08.062Z,100921.63
2022-11-29T00:10:38.035Z,100920.78
2022-11-29T00:13:05.226Z,100928.41
2022-11-29T00:15:36.728Z,100920.66
2022-11-29T00:18:04.747Z,100928.84
2022-11-29T00:20:33.932Z,100930.03
2022-11-29T00:23:01.069Z,100924.88
2022-11-29T00:25:27.979Z,100929.19
2022-11-29T00:27:54.520Z,100932.72
2022-11-29T00:30:21.374Z,100936.22
2022-11-29T00:32:48.209Z,100927.00
2022-11-29T00:35:14.723Z,100938.81
2022-11-29T00:37:41.218Z,100929.56
2022-11-29T00:40:08.428Z,100932.00
2022-11-29T00:42:34.849Z,100925.34
2022-11-29T00:45:02.127Z,100931.09
2022-11-29T00:47:29.056Z,100928.72
2022-11-29T00:49:55.704Z,100924.66
2022-11-29T00:52:22.175Z,100920.75
2022-11-29T00:54:48.652Z,100921.94
2022-11-29T00:57:15.114Z,100928.03
2022-11-29T00:59:41.584Z,100927.34
2022-11-29T01:02:08.104Z,100922.66
2022-11-29T01:04:34.611Z,100921.09
2022-11-29T01:07:01.096Z,100927.34
2022-11-29T01:09:27.968Z,100932.72
2022-11-29T01:11:54.425Z,100926.28
2022-11-29T01:14:20.875Z,100933.91
2022-11-29T01:16:47.332Z,100929.56
2022-11-29T01:19:13.817Z,100931.66
2022-11-29T01:21:41.179Z,100933.31
2022-11-29T01:24:07.962Z,100934.47
2022-11-29T01:26:34.573Z,100931.78
2022-11-29T01:29:01.057Z,100936.47
2022-11-29T01:31:33.590Z,100937.66
2022-11-29T01:34:02.419Z,100938.47
2022-11-29T01:36:29.772Z,100936.81
2022-11-29T01:38:59.368Z,100939.97
2022-11-29T01:41:28.411Z,100944.66
2022-11-29T01:44:11.760Z,100941.41
2022-11-29T01:46:40.443Z,100948.66
2022-11-29T01:49:15.276Z,100943.63
2022-11-29T01:51:45.731Z,100944.53
2022-11-29T01:54:13.759Z,100945.25
2022-11-29T01:56:41.769Z,100954.97
2022-11-29T01:59:12.177Z,100946.19
2022-11-29T02:01:38.952Z,100941.16
2022-11-29T02:04:06.152Z,100954.41
2022-11-29T02:06:33.395Z,100951.25
2022-11-29T02:08:59.867Z,100951.72
2022-11-29T02:11:36.513Z,100958.72
2022-11-29T02:14:22.133Z,100950.28
2022-11-29T02:17:05.575Z,100957.34
2022-11-29T02:20:05.628Z,100958.16
2022-11-29T02:22:47.255Z,100960.47
2022-11-29T02:25:55.762Z,100954.41
2022-11-29T02:28:50.580Z,100959.56
2022-11-29T02:31:52.279Z,100957.69
2022-11-29T02:34:32.726Z,100958.72
2022-11-29T02:37:22.544Z,100961.41
2022-11-29T02:39:58.434Z,100957.69
2022-11-29T02:42:55.781Z,100963.66
2022-11-29T02:45:34.616Z,100960.38
2022-11-29T02:48:27.226Z,100960.97
2022-11-29T02:51:11.740Z,100966.34
2022-11-29T02:53:49.023Z,100967.66
2022-11-29T02:56:25.079Z,100962.72
2022-11-29T02:58:59.082Z,100973.94
2022-11-29T03:01:46.301Z,100973.50
2022-11-29T03:04:45.371Z,100978.06
2022-11-29T03:07:39.663Z,100973.84
2022-11-29T03:10:28.194Z,100979.69
2022-11-29T03:12:55.638Z,100979.94
2022-11-29T03:15:30.630Z,100980.78
2022-11-29T03:18:03.559Z,100982.03
2022-11-29T03:20:45.509Z,100987.78
2022-11-29T03:23:25.778Z,100984.84
2022-11-29T03:26:33.080Z,100994.56
2022-11-29T03:29:11.831Z,100989.41
2022-11-29T03:32:03.244Z,100991.59
2022-11-29T03:34:54.298Z,100999.94
2022-11-29T03:37:27.194Z,101002.25
2022-11-29T03:39:59.799Z,100999.81
2022-11-29T03:42:32.845Z,101000.88
2022-11-29T03:45:18.893Z,101008.81
2022-11-29T03:47:55.998Z,101002.84
2022-11-29T03:50:33.624Z,101011.16
2022-11-29T03:53:13.913Z,101009.41
2022-11-29T03:55:59.816Z,101008.91
2022-11-29T03:59:07.715Z,101011.84
2022-11-29T04:01:34.176Z,101012.19
2022-11-29T04:04:28.333Z,101006.91
2022-11-29T04:07:00.860Z,101008.34
2022-11-29T04:09:58.789Z,101013.72
2022-11-29T04:12:28.232Z,101005.97
2022-11-29T04:15:15.609Z,101012.97
2022-11-29T04:18:00.791Z,101010.63
2022-11-29T04:20:54.700Z,101011.22
2022-11-29T04:23:46.627Z,101015.28
2022-11-29T04:26:58.798Z,101015.44
2022-11-29T04:29:43.916Z,101020.69
2022-11-29T04:32:19.123Z,101018.13
2022-11-29T04:35:07.316Z,101028.59
2022-11-29T04:37:58.934Z,101033.16
2022-11-29T04:40:41.757Z,101030.78
2022-11-29T04:43:19.825Z,101037.25
2022-11-29T04:45:56.991Z,101045.19
2022-11-29T04:48:54.151Z,101048.59
2022-11-29T04:51:46.741Z,101042.22
2022-11-29T04:54:43.503Z,101056.00
2022-11-29T04:57:25.644Z,101051.59
2022-11-29T05:00:01.958Z,101059.91
2022-11-29T05:02:42.089Z,101063.19
2022-11-29T05:05:27.559Z,101062.19
2022-11-29T05:08:10.668Z,101059.09
2022-11-29T05:11:03.428Z,101065.50
2022-11-29T05:13:53.112Z,101074.03
2022-11-29T05:17:01.009Z,101069.59
2022-11-29T05:19:37.163Z,101074.41
2022-11-29T05:22:12.496Z,101071.13
2022-11-29T05:25:00.859Z,101076.72
2022-11-29T05:27:27.469Z,101080.91
2022-11-29T05:29:53.851Z,101087.34
2022-11-29T05:32:30.084Z,101090.03
2022-11-29T05:35:24.745Z,101095.94
2022-11-29T05:38:14.013Z,101095.94
2022-11-29T05:40:46.432Z,101098.41
2022-11-29T05:43:40.415Z,101100.06
2022-11-29T05:46:49.881Z,101101.31
2022-11-29T05:49:25.842Z,101097.22
2022-11-29T05:52:14.160Z,101115.75
2022-11-29T05:55:19.405Z,101115.81
2022-11-29T05:58:03.864Z,101114.19
2022-11-29T06:00:52.117Z,101113.75
2022-11-29T06:03:39.385Z,101117.91
2022-11-29T06:06:19.072Z,101118.91
2022-11-29T06:08:56.983Z,101122.63
2022-11-29T06:11:46.831Z,101123.09
2022-11-29T06:14:16.004Z,101136.63
2022-11-29T06:16:56.809Z,101137.75
2022-11-29T06:19:49.126Z,101144.09
2022-11-29T06:22:53.359Z,101135.59
2022-11-29T06:25:44.186Z,101134.38
2022-11-29T06:28:23.790Z,101135.88
2022-11-29T06:31:11.972Z,101135.88
2022-11-29T06:34:09.318Z,101135.66
2022-11-29T06:36:38.607Z,101139.75
2022-11-29T06:39:05.951Z,101150.31
2022-11-29T06:41:32.773Z,101151.75
2022-11-29T06:43:59.746Z,101147.97
2022-11-29T06:46:41.914Z,101148.81
2022-11-29T06:49:28.046Z,101156.75
2022-11-29T06:52:32.371Z,101159.66
2022-11-29T06:55:19.724Z,101157.28
2022-11-29T06:57:49.143Z,101164.91
2022-11-29T07:00:27.060Z,101160.72
2022-11-29T07:03:06.614Z,101172.22
2022-11-29T07:05:35.056Z,101171.25
2022-11-29T07:08:10.674Z,101160.47
2022-11-29T07:10:39.601Z,101169.84
2022-11-29T07:13:06.732Z,101173.81
2022-11-29T07:15:33.761Z,101182.97
2022-11-29T07:18:09.014Z,101187.25
2022-11-29T07:21:06.361Z,101179.03
2022-11-29T07:23:42.598Z,101180.63
2022-11-29T07:26:42.216Z,101185.31
2022-11-29T07:29:42.876Z,101191.41
2022-11-29T07:32:31.015Z,101188.63
2022-11-29T07:35:12.536Z,101185.53
2022-11-29T07:37:38.954Z,101201.63
2022-11-29T07:40:23.753Z,101200.38
2022-11-29T07:42:53.144Z,101200.72
2022-11-29T07:45:27.748Z,101207.56
2022-11-29T07:47:54.580Z,101194.53
2022-11-29T07:50:21.718Z,101211.50
2022-11-29T07:52:49.088Z,101212.72
2022-11-29T07:55:19.583Z,101211.13
2022-11-29T07:57:46.836Z,101213.59
2022-11-29T08:00:14.007Z,101217.13
2022-11-29T08:02:41.153Z,101225.56
2022-11-29T08:05:08.593Z,101229.53
2022-11-29T08:07:37.287Z,101235.38
2022-11-29T08:10:06.343Z,101234.56
2022-11-29T08:12:33.241Z,101230.38
2022-11-29T08:14:59.884Z,101232.97
2022-11-29T08:17:26.968Z,101234.63
2022-11-29T08:19:53.652Z,101238.97
2022-11-29T08:22:20.108Z,101233.28
2022-11-29T08:24:47.032Z,101238.16
2022-11-29T08:27:13.737Z,101234.78
2022-11-29T08:29:40.225Z,101233.34
2022-11-29T08:32:06.859Z,101242.50
2022-11-29T08:34:35.619Z,101238.81
2022-11-29T08:37:02.419Z,101240.03
2022-11-29T08:39:29.857Z,101249.97
2022-11-29T08:41:56.635Z,101258.25
2022-11-29T08:44:23.154Z,101249.75
2022-11-29T08:47:08.427Z,101258.25
2022-11-29T08:49:34.907Z,101254.25
2022-11-29T08:52:20.877Z,101258.97
2022-11-29T08:54:47.709Z,101253.88
2022-11-29T08:57:39.308Z,101260.00
2022-11-29T09:00:01.164Z,101260.44
2022-11-29T09:02:30.177Z,101268.16
2022-11-29T09:04:57.959Z,101273.53
2022-11-29T09:07:24.544Z,101267.94
2022-11-29T09:09:50.994Z,101270.19
2022-11-29T09:12:17.467Z,101278.94
2022-11-29T09:14:44.189Z,101281.03
2022-11-29T09:17:10.824Z,101283.72
2022-11-29T09:19:37.360Z,101285.84
2022-11-29T09:22:03.918Z,101280.97
2022-11-29T09:24:31.126Z,101285.09
2022-11-29T09:26:58.010Z,101275.44
2022-11-29T09:29:24.540Z,101286.81
2022-11-29T09:31:51.119Z,101285.41
2022-11-29T09:34:21.221Z,101288.91
2022-11-29T09:36:48.152Z,101291.16
2022-11-29T09:39:14.647Z,101291.75
2022-11-29T09:42:00.648Z,101301.19
2022-11-29T09:44:39.126Z,101293.34
2022-11-29T09:47:36.668Z,101301.19
2022-11-29T09:50:43.171Z,101303.19
2022-11-29T09:53:54.357Z,101302.53
2022-11-29T09:56:42.684Z,101311.97
2022-11-29T09:59:14.049Z,101316.22
2022-11-29T10:01:48.019Z,101309.56
2022-11-29T10:04:21.424Z,101312.63
2022-11-29T10:06:59.031Z,101311.31
2022-11-29T10:09:44.826Z,101316.34
2022-11-29T10:12:23.627Z,101314.19
2022-11-29T10:14:57.904Z,101311.50
2022-11-29T10:17:47.956Z,101303.22
2022-11-29T10:20:27.213Z,101310.97
2022-11-29T10:23:04.640Z,101313.44
2022-11-29T10:25:42.166Z,101303.84
2022-11-29T10:28:19.910Z,101308.53
2022-11-29T10:30:47.247Z,101301.16
2022-11-29T10:33:25.476Z,101309.97
2022-11-29T10:35:57.734Z,101308.19
2022-11-29T10:38:32.366Z,101305.47
2022-11-29T10:41:09.666Z,101314.69
2022-11-29T10:43:37.456Z,101318.44
2022-11-29T10:46:07.040Z,101315.59
2022-11-29T10:48:34.273Z,101314.84
2022-11-29T10:51:01.933Z,101319.88
2022-11-29T10:53:35.864Z,101322.69
2022-11-29T10:56:07.247Z,101325.09
2022-11-29T10:58:34.726Z,101315.59
2022-11-29T11:01:06.823Z,101311.75
2022-11-29T11:03:41.136Z,101312.47
2022-11-29T11:06:15.779Z,101304.91
2022-11-29T11:08:45.848Z,101310.44
2022-11-29T11:11:13.265Z,101303.88
2022-11-29T11:13:41.881Z,101298.13
2022-11-29T11:16:18.063Z,101299.06
2022-11-29T11:18:47.228Z,101300.63
2022-11-29T11:21:19.710Z,101305.34
2022-11-29T11:23:56.560Z,101295.22
2022-11-29T11:26:23.515Z,101299.94
2022-11-29T11:29:03.310Z,101299.81
2022-11-29T11:31:34.137Z,101298.84
2022-11-29T11:34:34.248Z,101305.31
2022-11-29T11:37:20.737Z,101309.06
2022-11-29T11:39:49.852Z,101308.59
2022-11-29T11:42:38.299Z,101313.66
2022-11-29T11:45:19.720Z,101319.75
2022-11-29T11:47:52.993Z,101312.72
2022-11-29T11:50:44.260Z,101312.13
2022-11-29T11:53:31.316Z,101314.00
2022-11-29T11:56:02.737Z,101317.19
2022-11-29T11:58:32.424Z,101314.25
2022-11-29T12:01:08.165Z,101310.94
2022-11-29T12:03:56.057Z,101322.69
2022-11-29T12:06:37.144Z,101324.38
2022-11-29T12:09:14.145Z,101328.34
2022-11-29T12:11:44.414Z,101319.19
2022-11-29T12:14:22.558Z,101327.06
2022-11-29T12:16:52.235Z,101320.72
2022-11-29T12:19:23.432Z,101327.88
2022-11-29T12:21:55.937Z,101324.72
2022-11-29T12:24:52.405Z,101326.84
2022-11-29T12:27:18.884Z,101327.41
2022-11-29T12:29:45.405Z,101333.75
2022-11-29T12:32:38.499Z,101330.34
2022-11-29T12:35:36.936Z,101340.59
2022-11-29T12:38:19.714Z,101344.66
2022-11-29T12:40:59.614Z,101347.88
2022-11-29T12:43:47.761Z,101346.56
2022-11-29T12:46:26.097Z,101352.31
2022-11-29T12:49:22.326Z,101352.53
2022-11-29T12:52:18.072Z,101354.31
2022-11-29T12:55:19.760Z,101350.31
2022-11-29T12:57:54.625Z,101356.22
2022-11-29T13:00:21.320Z,101351.50
2022-11-29T13:03:06.653Z,101356.31
2022-11-29T13:06:02.689Z,101370.19
2022-11-29T13:09:02.263Z,101362.19
2022-11-29T13:11:36.560Z,101364.16
2022-11-29T13:14:41.058Z,101365.13
2022-11-29T13:17:04.127Z,101373.22
2022-11-29T13:19:49.475Z,101366.72
2022-11-29T13:22:27.918Z,101372.22
2022-11-29T13:25:01.582Z,101372.44
2022-11-29T13:27:43.318Z,101374.94
2022-11-29T13:30:14.802Z,101372.22
2022-11-29T13:33:13.164Z,101373.97
2022-11-29T13:36:21.964Z,101379.25
2022-11-29T13:39:07.578Z,101382.41
2022-11-29T13:41:59.052Z,101382.28
2022-11-29T13:44:47.501Z,101386.88
2022-11-29T13:47:17.080Z,101388.84
2022-11-29T13:49:57.781Z,101381.91
2022-11-29T13:52:36.357Z,101386.50
2022-11-29T13:55:11.875Z,101388.94
2022-11-29T14:00:44.258Z,101395.13
2022-11-29T14:03:28.923Z,101385.78
2022-11-29T14:06:02.075Z,101386.72
2022-11-29T14:08:48.050Z,101397.72
2022-11-29T14:11:27.444Z,101394.19
2022-11-29T14:14:08.790Z,101395.84
2022-11-29T14:16:48.777Z,101401.47
2022-11-29T14:19:30.087Z,101403.66
2022-11-29T14:22:02.746Z,101401.41
2022-11-29T14:24:32.481Z,101404.09
2022-11-29T14:27:08.835Z,101403.66
2022-11-29T14:29:47.381Z,101403.47
2022-11-29T14:32:45.779Z,101414.13
2022-11-29T14:35:12.775Z,101413.56
2022-11-29T14:37:52.258Z,101412.88
2022-11-29T14:40:34.008Z,101413.63
2022-11-29T14:43:02.738Z,101418.06
2022-11-29T14:45:34.566Z,101411.31
2022-11-29T14:48:04.532Z,101414.72
2022-11-29T14:50:40.021Z,101415.88
2022-11-29T14:53:27.819Z,101421.50
2022-11-29T14:56:42.570Z,101418.66
2022-11-29T14:59:45.294Z,101412.44
2022-11-29T15:02:32.310Z,101419.84
2022-11-29T15:05:12.213Z,101424.34
2022-11-29T15:07:44.559Z,101415.94
2022-11-29T15:10:20.060Z,101423.28
2022-11-29T15:12:49.229Z,101426.16
2022-11-29T15:15:36.601Z,101433.81
2022-11-29T15:18:36.597Z,101434.41
2022-11-29T15:21:30.889Z,101439.66
2022-11-29T15:24:09.405Z,101443.88
2022-11-29T15:26:35.929Z,101438.19
2022-11-29T15:29:16.948Z,101441.09
2022-11-29T15:31:44.646Z,101441.09
2022-11-29T15:34:31.512Z,101444.69
2022-11-29T15:37:00.013Z,101437.78
2022-11-29T15:39:36.399Z,101446.28
2022-11-29T15:42:14.036Z,101453.59
2022-11-29T15:44:48.721Z,101443.41
2022-11-29T15:47:26.729Z,101454.44
2022-11-29T15:49:54.274Z,101450.91
2022-11-29T15:52:34.784Z,101455.50
2022-11-29T15:55:05.778Z,101452.28
2022-11-29T15:57:38.159Z,101449.06
2022-11-29T16:00:07.876Z,101448.66
2022-11-29T16:02:39.433Z,101444.31
2022-11-29T16:05:20.272Z,101447.03
2022-11-29T16:07:49.510Z,101438.19
2022-11-29T16:10:34.847Z,101446.94
2022-11-29T16:13:31.569Z,101450.53
2022-11-29T16:16:16.107Z,101467.63
2022-11-29T16:18:46.380Z,101467.25
2022-11-29T16:21:26.782Z,101464.53
2022-11-29T16:23:54.008Z,101463.94
2022-11-29T16:26:26.433Z,101471.97
2022-11-29T16:28:56.977Z,101468.53
2022-11-29T16:31:30.955Z,101468.97
2022-11-29T16:34:05.643Z,101469.19
2022-11-29T16:36:32.257Z,101477.94
2022-11-29T16:39:24.454Z,101483.72
2022-11-29T16:42:15.010Z,101477.06
2022-11-29T16:44:41.420Z,101477.28
2022-11-29T16:47:29.514Z,101482.69
2022-11-29T16:50:04.195Z,101483.88
2022-11-29T16:52:32.935Z,101479.53
2022-11-29T16:55:00.094Z,101489.97
2022-11-29T16:57:28.977Z,101485.16
2022-11-29T16:59:55.533Z,101482.38
2022-11-29T17:02:22.461Z,101490.03
2022-11-29T17:04:50.872Z,101494.75
2022-11-29T17:07:26.455Z,101487.19
2022-11-29T17:09:53.497Z,101494.56
2022-11-29T17:12:20.102Z,101497.63
2022-11-29T17:14:46.811Z,101487.41
2022-11-29T17:17:18.418Z,101496.03
2022-11-29T17:19:45.348Z,101493.47
2022-11-29T17:22:12.464Z,101504.41
2022-11-29T17:24:44.773Z,101501.63
2022-11-29T17:27:14.254Z,101505.28
2022-11-29T17:29:40.710Z,101504.09
2022-11-29T17:32:07.256Z,101509.66
2022-11-29T17:34:33.873Z,101512.94
2022-11-29T17:37:00.750Z,101508.69
2022-11-29T17:39:27.906Z,101518.47
2022-11-29T17:41:54.386Z,101514.72
2022-11-29T17:44:20.863Z,101519.56
2022-11-29T17:46:47.387Z,101514.66
2022-11-29T17:49:13.898Z,101519.63
2022-11-29T17:51:51.584Z,101526.78
2022-11-29T17:54:19.197Z,101520.88
2022-11-29T17:56:45.650Z,101527.94
2022-11-29T17:59:12.105Z,101526.34
2022-11-29T18:01:38.751Z,101530.75
2022-11-29T18:04:05.991Z,101539.16
2022-11-29T18:06:40.261Z,101537.41
2022-11-29T18:09:09.030Z,101537.19
2022-11-29T18:11:47.533Z,101539.88
2022-11-29T18:14:23.312Z,101537.13
2022-11-29T18:16:50.319Z,101543.38
2022-11-29T18:19:19.984Z,101543.56
2022-11-29T18:21:47.129Z,101544.06
2022-11-29T18:24:13.928Z,101544.28
2022-11-29T18:26:41.286Z,101544.06
2022-11-29T18:29:08.566Z,101556.06
2022-11-29T18:31:37.743Z,101554.81
2022-11-29T18:34:07.090Z,101554.69
2022-11-29T18:36:37.071Z,101549.91
2022-11-29T18:39:07.254Z,101551.53
2022-11-29T18:41:33.983Z,101555.88
2022-11-29T18:44:04.391Z,101554.84
2022-11-29T18:46:36.561Z,101554.47
2022-11-29T18:49:05.623Z,101547.97
2022-11-29T18:51:33.281Z,101547.38
2022-11-29T18:54:00.967Z,101557.22
2022-11-29T18:56:30.562Z,101552.75
2022-11-29T18:59:04.194Z,101559.63
2022-11-29T19:01:33.851Z,101557.38
2022-11-29T19:04:02.700Z,101551.81
2022-11-29T19:06:39.310Z,101556.09
2022-11-29T19:09:08.498Z,101565.63
2022-11-29T19:11:35.545Z,101553.63
2022-11-29T19:14:04.544Z,101559.91
2022-11-29T19:16:33.925Z,101553.91
2022-11-29T19:19:01.976Z,101558.03
2022-11-29T19:21:31.912Z,101555.66
2022-11-29T19:24:04.157Z,101556.97
2022-11-29T19:26:31.962Z,101557.66
2022-11-29T19:29:00.343Z,101556.00
2022-11-29T19:31:28.275Z,101552.03
2022-11-29T19:33:55.654Z,101556.91
2022-11-29T19:36:27.935Z,101555.13
2022-11-29T19:38:55.325Z,101568.44
2022-11-29T19:41:26.762Z,101560.69
2022-11-29T19:43:55.635Z,101569.47
2022-11-29T19:46:25.764Z,101563.91
2022-11-29T19:48:54.202Z,101560.78
2022-11-29T19:51:21.949Z,101560.63
2022-11-29T19:53:52.625Z,101563.22
2022-11-29T19:56:20.540Z,101567.41
2022-11-29T19:58:48.756Z,101564.94
2022-11-29T20:01:22.325Z,101567.81
2022-11-29T20:03:49.531Z,101575.72
2022-11-29T20:06:16.927Z,101565.84
2022-11-29T20:08:43.831Z,101566.59
2022-11-29T20:11:13.371Z,101559.97
2022-11-29T20:13:41.746Z,101574.25
2022-11-29T20:16:10.880Z,101569.56
2022-11-29T20:18:40.092Z,101573.25
2022-11-29T20:21:09.191Z,101576.91
2022-11-29T20:23:35.687Z,101576.56
2022-11-29T20:26:02.793Z,101582.00
2022-11-29T20:28:30.077Z,101577.03
2022-11-29T20:30:56.850Z,101582.22
2022-11-29T20:33:25.457Z,101579.13
2022-11-29T20:36:03.739Z,101587.34
2022-11-29T20:38:39.168Z,101589.31
2022-11-29T20:41:16.959Z,101591.63
2022-11-29T20:43:58.159Z,101584.44
2022-11-29T20:46:25.779Z,101583.25
2022-11-29T20:48:53.628Z,101580.72
2022-11-29T20:51:26.139Z,101584.50
2022-11-29T20:53:52.716Z,101578.03
2022-11-29T20:56:19.248Z,101590.69
2022-11-29T20:58:45.720Z,101584.69
2022-11-29T21:01:12.301Z,101582.00
2022-11-29T21:03:38.858Z,101587.31
2022-11-29T21:06:06.289Z,101593.72
2022-11-29T21:08:33.664Z,101585.59
2022-11-29T21:11:10.141Z,101590.44
2022-11-29T21:13:37.255Z,101594.53
2022-11-29T21:16:04.386Z,101597.66
2022-11-29T21:18:31.947Z,101592.75
2022-11-29T21:21:25.063Z,101590.25
2022-11-29T21:24:07.686Z,101583.25
2022-11-29T21:26:49.142Z,101582.59
2022-11-29T21:29:17.993Z,101588.44
2022-11-29T21:31:45.839Z,101589.06
2022-11-29T21:34:13.136Z,101590.34
2022-11-29T21:36:40.160Z,101592.81
2022-11-29T21:39:09.660Z,101585.69
2022-11-29T21:41:36.386Z,101586.47
2022-11-29T21:44:07.570Z,101594.38
2022-11-29T21:46:34.809Z,101592.78
2022-11-29T21:49:01.405Z,101594.84
2022-11-29T21:51:28.067Z,101597.78
2022-11-29T21:53:54.593Z,101604.81
2022-11-29T21:56:21.007Z,101604.22
2022-11-29T21:58:47.509Z,101602.28
2022-11-29T22:01:16.196Z,101599.75
2022-11-29T22:03:43.497Z,101599.38
2022-11-29T22:06:13.436Z,101596.47
2022-11-29T22:08:41.157Z,101606.91
2022-11-29T22:11:10.381Z,101606.09
2022-11-29T22:13:58.208Z,101605.00
2022-11-29T22:16:24.945Z,101608.09
2022-11-29T22:18:51.580Z,101608.56
2022-11-29T22:21:18.050Z,101608.31
2022-11-29T22:23:44.517Z,101613.47
2022-11-29T22:26:11.816Z,101607.69
2022-11-29T22:28:38.294Z,101614.94
2022-11-29T22:31:08.550Z,101604.13
2022-11-29T22:33:36.255Z,101610.19
2022-11-29T22:36:11.396Z,101611.25
2022-11-29T22:38:38.596Z,101605.44
2022-11-29T22:41:13.386Z,101609.38
2022-11-29T22:43:41.186Z,101605.41
2022-11-29T22:46:16.075Z,101615.72
2022-11-29T22:48:44.005Z,101611.66
2022-11-29T22:51:15.912Z,101620.59
2022-11-29T22:53:49.670Z,101620.59
2022-11-29T22:56:16.758Z,101625.56
2022-11-29T22:58:45.334Z,101629.28
2022-11-29T23:01:14.640Z,101625.16
2022-11-29T23:03:53.691Z,101628.25
2022-11-29T23:06:52.443Z,101624.09
2022-11-29T23:09:22.117Z,101634.00
2022-11-29T23:11:54.203Z,101633.44
2022-11-29T23:14:22.174Z,101631.13
2022-11-29T23:16:49.020Z,101635.06
2022-11-29T23:19:16.565Z,101631.41
2022-11-29T23:21:45.760Z,101636.19
2022-11-29T23:24:12.820Z,101631.59
2022-11-29T23:26:43.232Z,101634.03
2022-11-29T23:29:12.781Z,101630.59
2022-11-29T23:31:39.729Z,101631.84
2022-11-29T23:34:06.441Z,101629.75
2022-11-29T23:36:33.695Z,101632.03
2022-11-29T23:39:04.445Z,101636.75
2022-11-29T23:41:30.998Z,101633.03
2022-11-29T23:43:59.558Z,101640.53
2022-11-29T23:46:26.640Z,101639.06
2022-11-29T23:48:53.294Z,101637.44
2022-11-29T23:51:20.373Z,101635.75
2022-11-29T23:53:51.359Z,101634.31
2022-11-29T23:56:18.850Z,101636.63
2022-11-29T23:58:45.858Z,101638.50
